Time;durP1;ratioP1;P1;durP2;ratioP2;P2;SDS_P1;SDS_P2;PMS_P1;PMS_P2;Temp;Humidity;BMP_temperature;BMP_pressure;BME280_temperature;BME280_humidity;BME280_pressure;Samples;Min_cycle;Max_cycle;Signal;HPM_P1;HPM_P2
2021/08/11 08:41:56;;;;;;;10.20;7.63;;;19.50;98.30;;;;;;5092315;23;20411;-81
2021/08/11 08:43:59;;;;;;;7.80;6.80;;;19.70;98.30;;;;;;5100927;23;20473;-83
2021/08/11 08:46:03;;;;;;;9.33;8.30;;;20.00;98.30;;;;;;5100782;23;20527;-82
2021/08/11 08:48:08;;;;;;;8.83;6.93;;;20.00;98.30;;;;;;5093371;23;20455;-83
2021/08/11 08:50:11;;;;;;;9.40;7.70;;;20.00;98.30;;;;;;5101506;23;20439;-82
2021/08/11 08:52:18;;;;;;;7.80;7.00;;;20.10;98.30;;;;;;5100885;23;20437;-83
2021/08/11 08:54:24;;;;;;;10.10;7.03;;;20.30;98.30;;;;;;5100884;23;20426;-82
2021/08/11 08:56:27;;;;;;;10.30;7.53;;;20.30;98.30;;;;;;5093219;23;20457;-82
2021/08/11 08:58:30;;;;;;;9.87;6.93;;;20.20;98.30;;;;;;5101697;23;20430;-83
2021/08/11 09:00:35;;;;;;;7.20;6.50;;;20.30;98.30;;;;;;5101323;23;20442;-81
2021/08/11 09:02:39;;;;;;;7.77;7.00;;;20.20;98.30;;;;;;5101106;23;20462;-82
2021/08/11 09:04:44;;;;;;;9.53;7.23;;;20.40;98.30;;;;;;5099033;23;20498;-82
2021/08/11 09:06:46;;;;;;;9.27;6.53;;;20.40;98.30;;;;;;5101721;23;20534;-81
2021/08/11 09:08:56;;;;;;;6.80;6.20;;;20.50;98.30;;;;;;5092866;23;20444;-82
2021/08/11 09:10:59;;;;;;;9.33;6.47;;;20.70;98.30;;;;;;5100264;23;20494;-82
2021/08/11 09:13:12;;;;;;;7.83;6.70;;;20.60;98.30;;;;;;5098852;23;20490;-82
2021/08/11 09:15:30;;;;;;;8.60;7.23;;;20.40;98.30;;;;;;5100217;23;20437;-82
2021/08/11 09:17:34;;;;;;;11.43;6.37;;;20.20;98.30;;;;;;5101121;23;20415;-82
2021/08/11 09:19:39;;;;;;;8.17;6.73;;;20.20;98.30;;;;;;5141655;23;20424;-82
2021/08/11 09:22:01;;;;;;;8.57;7.00;;;20.10;98.30;;;;;;5178437;23;20432;-82
2021/08/11 09:24:17;;;;;;;8.43;7.60;;;20.00;98.30;;;;;;5179389;23;20435;-82
2021/08/11 09:26:20;;;;;;;9.60;7.77;;;20.10;98.30;;;;;;5179070;23;20440;-81
2021/08/11 09:28:23;;;;;;;11.07;7.70;;;20.40;98.30;;;;;;5178811;23;20432;-82
2021/08/11 09:30:40;;;;;;;10.43;6.90;;;20.70;98.30;;;;;;5177980;23;20450;-82
2021/08/11 09:32:58;;;;;;;9.93;8.00;;;20.70;98.30;;;;;;5170555;23;20519;-82
2021/08/11 09:35:07;;;;;;;13.27;8.00;;;20.70;98.30;;;;;;5178004;23;20412;-82
2021/08/11 09:37:12;;;;;;;9.20;7.10;;;20.70;98.30;;;;;;5170262;23;20475;-82
2021/08/11 09:39:15;;;;;;;9.60;6.93;;;20.70;98.30;;;;;;5180156;23;20426;-82
2021/08/11 09:41:18;;;;;;;7.93;6.10;;;20.90;98.30;;;;;;5170109;23;20510;-82
2021/08/11 09:43:33;;;;;;;12.73;7.20;;;21.00;98.30;;;;;;5179230;23;20522;-82
2021/08/11 09:45:47;;;;;;;7.87;7.07;;;21.00;98.30;;;;;;5178571;23;20427;-82
2021/08/11 09:47:59;;;;;;;10.30;7.70;;;20.90;98.30;;;;;;5178543;23;20419;-82
2021/08/11 09:50:05;;;;;;;10.43;7.60;;;20.80;98.30;;;;;;5170052;23;20470;-81
2021/08/11 09:52:08;;;;;;;11.53;7.00;;;20.80;98.30;;;;;;5179385;23;20416;-83
2021/08/11 09:54:12;;;;;;;8.37;7.30;;;20.80;98.30;;;;;;5179269;23;20511;-82
2021/08/11 09:56:15;;;;;;;9.63;7.67;;;20.60;98.30;;;;;;5179460;23;21012;-82
2021/08/11 09:58:20;;;;;;;8.40;7.50;;;20.40;98.30;;;;;;5179225;23;20427;-83
2021/08/11 10:00:23;;;;;;;7.73;6.90;;;20.40;98.30;;;;;;5171821;23;20455;-83
2021/08/11 10:02:26;;;;;;;8.53;6.30;;;20.60;98.30;;;;;;5179594;23;20483;-82
2021/08/11 10:04:41;;;;;;;9.30;6.57;;;20.80;98.30;;;;;;5177589;23;20447;-82
2021/08/11 10:06:45;;;;;;;6.70;6.00;;;20.80;98.30;;;;;;5179132;23;20440;-81
2021/08/11 10:08:48;;;;;;;6.90;5.77;;;21.00;98.30;;;;;;5178979;23;20424;-82
2021/08/11 10:10:53;;;;;;;7.23;5.80;;;20.90;98.30;;;;;;5179255;23;20451;-82
2021/08/11 10:12:57;;;;;;;6.57;5.37;;;20.90;98.30;;;;;;5177836;23;20437;-83
2021/08/11 10:15:04;;;;;;;7.80;5.63;;;21.20;98.30;;;;;;5177729;23;20889;-82
2021/08/11 10:17:07;;;;;;;7.00;5.67;;;21.30;98.30;;;;;;5178547;23;20518;-82
2021/08/11 10:19:12;;;;;;;7.07;5.73;;;21.20;98.30;;;;;;5178466;23;20427;-83
2021/08/11 10:21:15;;;;;;;6.67;5.37;;;21.10;98.30;;;;;;5179358;23;20419;-82
2021/08/11 10:23:20;;;;;;;5.93;5.40;;;21.30;98.30;;;;;;5179027;23;20913;-83
2021/08/11 10:25:23;;;;;;;6.43;5.60;;;21.50;98.30;;;;;;5178186;23;20424;-82
2021/08/11 10:27:28;;;;;;;6.87;5.93;;;21.60;98.30;;;;;;5178624;23;20924;-82
2021/08/11 10:29:32;;;;;;;5.63;5.13;;;21.40;98.30;;;;;;5178356;23;20432;-82
2021/08/11 10:31:36;;;;;;;5.73;4.77;;;21.30;98.30;;;;;;5179271;23;20515;-81
2021/08/11 10:33:43;;;;;;;7.73;5.40;;;21.50;98.30;;;;;;5169804;23;20420;-82
2021/08/11 10:35:48;;;;;;;6.37;5.30;;;21.70;98.30;;;;;;5177688;23;20455;-82
2021/08/11 10:37:51;;;;;;;6.53;5.87;;;21.80;98.30;;;;;;5178284;23;20448;-82
2021/08/11 10:39:54;;;;;;;7.57;5.43;;;22.00;98.30;;;;;;5178918;23;20416;-82
2021/08/11 10:42:00;;;;;;;9.93;6.00;;;22.20;98.30;;;;;;5179752;23;20435;-83
2021/08/11 10:44:06;;;;;;;5.83;5.27;;;22.30;98.30;;;;;;5179569;23;20940;-82
2021/08/11 10:46:13;;;;;;;5.80;5.20;;;22.60;98.30;;;;;;5171508;23;21016;-82
2021/08/11 10:48:18;;;;;;;6.60;5.50;;;22.80;98.30;;;;;;5178928;23;20415;-83
2021/08/11 10:50:21;;;;;;;7.40;5.17;;;23.00;98.30;;;;;;5171683;23;20507;-84
2021/08/11 10:52:25;;;;;;;6.77;5.27;;;23.20;97.00;;;;;;5177667;23;20912;-82
2021/08/11 10:54:28;;;;;;;5.23;4.67;;;23.40;97.60;;;;;;5177533;23;20419;-82
2021/08/11 10:56:45;;;;;;;9.27;5.90;;;23.10;98.30;;;;;;5177455;23;20443;-83
2021/08/11 10:58:48;;;;;;;5.90;5.13;;;23.00;98.30;;;;;;5178380;23;20416;-83
2021/08/11 11:00:53;;;;;;;5.80;4.70;;;22.90;98.30;;;;;;5177299;23;20446;-82
2021/08/11 11:02:57;;;;;;;6.30;4.40;;;22.90;98.30;;;;;;5176610;23;20792;-83
2021/08/11 11:05:02;;;;;;;6.70;5.43;;;22.80;98.30;;;;;;5178247;23;20428;-83
2021/08/11 11:07:16;;;;;;;4.60;4.20;;;22.70;98.30;;;;;;5175866;23;20510;-82
2021/08/11 11:09:21;;;;;;;5.17;4.67;;;23.00;98.30;;;;;;5175923;23;20426;-83
2021/08/11 11:11:42;;;;;;;4.63;4.10;;;23.50;96.70;;;;;;5175603;23;20454;-82
2021/08/11 11:13:45;;;;;;;5.33;4.83;;;23.50;96.70;;;;;;5177305;23;20416;-83
2021/08/11 11:15:53;;;;;;;5.10;4.60;;;23.40;97.40;;;;;;5168340;23;20450;-82
2021/08/11 11:18:18;;;;;;;6.10;4.77;;;22.80;98.30;;;;;;5177090;23;20471;-83
2021/08/11 11:20:21;;;;;;;5.70;4.93;;;22.80;98.30;;;;;;5177489;23;20416;-83
2021/08/11 11:22:35;;;;;;;4.80;4.27;;;22.90;98.30;;;;;;5176838;23;21004;-83
2021/08/11 11:24:51;;;;;;;6.73;4.70;;;23.40;98.30;;;;;;5177290;23;20444;-83
2021/08/11 11:26:54;;;;;;;7.77;4.30;;;23.60;98.30;;;;;;5169133;23;20451;-82
2021/08/11 11:29:07;;;;;;;5.03;4.23;;;23.80;97.70;;;;;;5177391;23;20921;-82
2021/08/11 11:31:30;;;;;;;4.20;3.80;;;24.30;96.40;;;;;;5176656;23;20761;-83
2021/08/11 11:33:33;;;;;;;5.03;4.37;;;24.80;93.70;;;;;;5177414;23;20401;-83
2021/08/11 11:35:37;;;;;;;4.70;4.30;;;24.50;93.20;;;;;;5176737;23;20535;-82
2021/08/11 11:37:40;;;;;;;4.90;4.43;;;24.50;94.30;;;;;;5177661;23;20443;-82
2021/08/11 11:40:14;;;;;;;4.60;4.20;;;24.60;94.00;;;;;;5177943;23;20423;-82
2021/08/11 11:42:28;;;;;;;5.43;4.10;;;24.90;94.10;;;;;;5177057;23;20425;-82
2021/08/11 11:44:47;;;;;;;5.33;4.83;;;25.40;93.00;;;;;;5175954;23;20784;-83
2021/08/11 11:46:53;;;;;;;4.97;4.47;;;25.90;91.60;;;;;;5167909;23;20448;-83
2021/08/11 11:49:18;;;;;;;4.77;4.37;;;26.30;90.00;;;;;;5176277;23;20408;-83
2021/08/11 11:51:23;;;;;;;5.73;4.10;;;26.40;90.10;;;;;;5175668;23;20451;-83
2021/08/11 11:53:30;;;;;;;6.37;4.70;;;26.40;90.30;;;;;;5175493;23;20487;-84
2021/08/11 11:55:35;;;;;;;5.90;5.10;;;26.50;90.10;;;;;;5174921;23;20896;-83
2021/08/11 11:57:39;;;;;;;4.80;4.40;;;26.50;90.90;;;;;;5175079;23;20411;-83
2021/08/11 11:59:44;;;;;;;5.00;4.50;;;26.50;91.40;;;;;;5166401;23;20510;-82
2021/08/11 12:01:47;;;;;;;7.47;4.63;;;26.60;90.00;;;;;;5175592;23;20404;-82
2021/08/11 12:03:52;;;;;;;4.93;4.27;;;26.50;89.90;;;;;;5173719;23;20434;-83
2021/08/11 12:05:55;;;;;;;4.80;4.30;;;26.60;88.70;;;;;;5175215;23;20479;-83
2021/08/11 12:08:09;;;;;;;4.97;4.57;;;26.10;88.70;;;;;;5175393;23;20436;-83
2021/08/11 12:10:23;;;;;;;4.23;3.83;;;25.30;90.90;;;;;;5167183;23;20415;-83
2021/08/11 12:12:26;;;;;;;5.30;4.80;;;25.10;92.30;;;;;;5167446;23;20427;-82
2021/08/11 12:14:29;;;;;;;5.20;4.17;;;25.80;91.80;;;;;;5175711;23;20503;-83
2021/08/11 12:16:36;;;;;;;4.47;4.03;;;26.50;88.80;;;;;;5175150;23;21084;-82
2021/08/11 12:18:42;;;;;;;5.70;4.37;;;26.30;88.30;;;;;;5168031;23;20423;-82
2021/08/11 12:20:48;;;;;;;6.23;4.07;;;26.00;87.80;;;;;;5175970;23;20423;-84
2021/08/11 12:23:20;;;;;;;5.43;4.40;;;25.80;88.40;;;;;;5175665;23;20786;-85
2021/08/11 12:25:24;;;;;;;6.23;4.83;;;25.80;88.70;;;;;;5175550;23;20447;-82
2021/08/11 12:27:27;;;;;;;5.00;4.50;;;25.80;91.00;;;;;;5175620;23;20428;-83
2021/08/11 12:29:31;;;;;;;5.30;3.73;;;26.30;88.10;;;;;;5166749;23;20439;-82
2021/08/11 12:31:35;;;;;;;6.57;4.23;;;26.40;87.40;;;;;;5175305;23;20431;-82
2021/08/11 12:33:40;;;;;;;6.47;4.97;;;25.90;87.80;;;;;;5174689;23;20423;-83
2021/08/11 12:35:43;;;;;;;4.67;4.23;;;25.90;88.00;;;;;;5166985;23;20510;-82
2021/08/11 12:37:48;;;;;;;5.57;4.10;;;26.40;87.80;;;;;;5175885;23;20486;-84
2021/08/11 12:39:51;;;;;;;6.63;4.10;;;26.80;86.80;;;;;;5175305;23;20454;-83
2021/08/11 12:42:02;;;;;;;4.90;4.50;;;27.10;86.40;;;;;;5166883;23;20429;-83
2021/08/11 12:44:14;;;;;;;4.20;3.80;;;26.90;85.40;;;;;;5175059;23;20520;-83
2021/08/11 12:46:37;;;;;;;4.60;4.20;;;26.80;87.10;;;;;;5175272;23;20534;-83
2021/08/11 12:48:41;;;;;;;4.17;3.80;;;27.30;86.30;;;;;;5175565;23;20498;-83
2021/08/11 12:50:44;;;;;;;5.43;4.03;;;26.80;87.50;;;;;;5174925;23;20451;-83
2021/08/11 12:52:55;;;;;;;5.90;4.50;;;26.60;88.10;;;;;;5175769;23;20473;-83
2021/08/11 12:55:02;;;;;;;5.10;4.57;;;26.00;88.70;;;;;;5167455;23;20872;-83
2021/08/11 12:57:05;;;;;;;4.57;4.20;;;25.60;90.90;;;;;;5175225;23;20435;-83
2021/08/11 12:59:08;;;;;;;4.53;4.13;;;26.20;89.50;;;;;;5176200;23;20462;-83
2021/08/11 13:01:29;;;;;;;4.47;3.87;;;26.70;87.10;;;;;;5167352;23;20495;-83
2021/08/11 13:03:45;;;;;;;4.67;4.10;;;26.70;86.10;;;;;;5175035;23;20423;-83
2021/08/11 13:05:50;;;;;;;5.00;4.53;;;25.90;86.90;;;;;;5175419;23;20526;-83
2021/08/11 13:07:58;;;;;;;4.80;4.23;;;25.60;88.50;;;;;;5175532;23;20447;-84
2021/08/11 13:10:12;;;;;;;4.57;4.17;;;25.70;89.80;;;;;;5175627;23;20458;-83
2021/08/11 13:12:28;;;;;;;4.53;4.10;;;26.30;87.90;;;;;;5174701;23;20431;-83
2021/08/11 13:14:51;;;;;;;4.90;4.30;;;26.80;87.80;;;;;;5174426;23;20423;-83
2021/08/11 13:17:01;;;;;;;4.60;4.10;;;27.60;86.40;;;;;;5174402;23;20741;-84
2021/08/11 13:19:16;;;;;;;8.40;4.53;;;28.20;84.50;;;;;;5174437;23;20430;-84
2021/08/11 13:21:20;;;;;;;5.83;5.33;;;29.10;80.80;;;;;;5174679;23;20904;-84
2021/08/11 13:23:25;;;;;;;6.30;5.70;;;29.50;80.90;;;;;;5173882;23;20423;-83
2021/08/11 13:25:29;;;;;;;6.30;5.00;;;29.80;79.10;;;;;;5174894;23;20493;-83
2021/08/11 13:27:34;;;;;;;4.77;4.20;;;29.70;79.10;;;;;;5174721;23;20423;-84
2021/08/11 13:29:40;;;;;;;4.63;4.23;;;29.10;78.80;;;;;;5166377;23;20493;-83
2021/08/11 13:31:49;;;;;;;8.40;4.70;;;28.20;81.60;;;;;;5166896;23;20412;-83
2021/08/11 13:33:53;;;;;;;5.50;4.33;;;27.70;82.80;;;;;;5166229;23;20836;-84
2021/08/11 13:35:57;;;;;;;8.47;4.60;;;26.30;85.20;;;;;;5175348;23;20834;-83
2021/08/11 13:38:02;;;;;;;5.07;4.57;;;25.40;88.30;;;;;;5175399;23;20431;-83
2021/08/11 13:40:09;;;;;;;7.60;5.50;;;25.20;89.90;;;;;;5174936;23;20416;-83
2021/08/11 13:42:15;;;;;;;7.73;4.77;;;25.30;90.60;;;;;;5174982;23;20446;-83
2021/08/11 13:44:18;;;;;;;5.17;4.67;;;25.40;90.60;;;;;;5174198;23;20420;-84
2021/08/11 13:46:21;;;;;;;6.53;5.80;;;25.30;90.70;;;;;;5174690;23;21064;-83
2021/08/11 13:48:24;;;;;;;6.13;4.97;;;25.10;91.40;;;;;;5174700;23;20417;-84
2021/08/11 13:50:27;;;;;;;4.73;4.33;;;25.20;90.80;;;;;;5166499;23;20436;-83
2021/08/11 13:52:30;;;;;;;5.33;4.83;;;25.30;91.60;;;;;;5174874;23;20424;-83
2021/08/11 13:54:33;;;;;;;5.00;4.50;;;25.60;90.40;;;;;;5174159;23;20518;-83
2021/08/11 13:56:40;;;;;;;6.10;4.60;;;25.60;89.30;;;;;;5166425;23;20751;-83
2021/08/11 13:58:45;;;;;;;5.73;4.70;;;25.30;90.00;;;;;;5174601;23;20459;-83
2021/08/11 14:00:48;;;;;;;7.30;4.87;;;25.00;90.60;;;;;;5174443;23;20412;-83
2021/08/11 14:02:53;;;;;;;5.87;4.30;;;24.70;91.80;;;;;;5174639;23;20448;-83
2021/08/11 14:04:57;;;;;;;5.50;4.87;;;24.50;92.80;;;;;;5175137;23;20416;-83
2021/08/11 14:07:02;;;;;;;5.13;4.30;;;24.40;92.90;;;;;;5174676;23;20447;-83
2021/08/11 14:09:05;;;;;;;4.93;4.50;;;24.20;93.50;;;;;;5174522;23;20502;-84
2021/08/11 14:11:08;;;;;;;5.20;4.70;;;24.00;94.00;;;;;;5166397;23;20439;-83
2021/08/11 14:13:12;;;;;;;5.73;4.63;;;24.10;94.70;;;;;;5175196;23;20451;-83
2021/08/11 14:15:15;;;;;;;4.70;4.20;;;25.10;93.90;;;;;;5175767;23;20926;-83
2021/08/11 14:17:20;;;;;;;6.07;4.70;;;26.30;90.40;;;;;;5177009;23;20467;-82
2021/08/11 14:19:23;;;;;;;4.93;4.43;;;27.50;86.70;;;;;;5177136;23;20466;-83
2021/08/11 14:21:28;;;;;;;7.67;4.57;;;28.40;84.00;;;;;;5176325;23;20427;-84
2021/08/11 14:23:31;;;;;;;4.40;4.00;;;28.90;82.80;;;;;;5175800;23;20477;-84
2021/08/11 14:25:34;;;;;;;5.27;4.80;;;29.30;81.50;;;;;;5175021;23;20446;-84
2021/08/11 20:35:03;;;;;;;10.97;9.80;;;20.50;98.30;;;;;;5166937;23;20983;-83
2021/08/11 20:43:08;;;;;;;8.57;7.67;;;20.40;98.30;;;;;;4246614;28;20451;-83
2021/08/11 20:45:28;;;;;;;9.50;8.50;;;20.30;98.30;;;;;;4242497;28;20456;-83
2021/08/11 20:50:18;;;;;;;9.80;8.90;;;20.20;98.30;;;;;;4247423;28;20479;-83
2021/08/11 20:52:34;;;;;;;22.63;19.90;;;20.20;98.30;;;;;;4249639;28;20468;-83
2021/08/11 20:54:44;;;;;;;19.80;14.80;;;20.20;98.30;;;;;;4243757;28;20479;-83
2021/08/11 20:56:55;;;;;;;19.30;15.90;;;20.10;98.30;;;;;;4236918;28;20459;-83
2021/08/11 20:59:07;;;;;;;13.10;11.80;;;20.10;98.30;;;;;;4246110;28;20479;-83
2021/08/11 21:03:55;;;;;;;15.13;13.53;;;20.10;98.30;;;;;;4216336;28;20468;-83
2021/08/11 21:06:15;;;;;;;14.30;11.20;;;20.10;98.30;;;;;;4247125;28;20467;-83
2021/08/11 21:08:45;;;;;;;11.20;10.00;;;20.10;98.30;;;;;;4245930;28;20492;-83
2021/08/11 21:11:04;;;;;;;10.77;9.67;;;20.10;98.30;;;;;;4242305;28;20449;-83
2021/08/11 21:24:44;;;;;;;14.27;10.20;;;20.00;98.30;;;;;;4193452;28;20485;-83
2021/08/11 21:31:26;;;;;;;13.90;11.20;;;20.10;98.30;;;;;;4115852;28;20471;-83
2021/08/11 21:44:21;;;;;;;11.53;10.33;;;19.70;98.30;;;;;;4086780;28;20469;-82
2021/08/11 21:46:28;;;;;;;12.63;11.40;;;19.70;98.30;;;;;;4169946;28;20472;-81
2021/08/11 21:48:34;;;;;;;12.57;11.27;;;19.60;98.30;;;;;;4170053;28;20483;-82
2021/08/11 21:50:41;;;;;;;15.10;11.40;;;19.80;98.30;;;;;;4217708;28;20956;-82
2021/08/11 21:52:46;;;;;;;11.77;9.90;;;19.80;98.30;;;;;;4230742;28;20951;-82
2021/08/11 21:55:09;;;;;;;12.10;10.40;;;19.90;98.30;;;;;;4227825;28;20526;-81
2021/08/11 21:57:29;;;;;;;11.33;10.20;;;19.80;98.30;;;;;;4213685;28;22557;-82
2021/08/11 21:59:36;;;;;;;10.73;9.73;;;19.70;98.30;;;;;;4229604;28;20508;-82
2021/08/11 22:01:41;;;;;;;12.10;10.00;;;19.60;98.30;;;;;;4228490;28;20457;-82
2021/08/11 22:03:46;;;;;;;13.60;9.67;;;19.70;98.30;;;;;;4230084;28;20971;-82
2021/08/11 22:05:51;;;;;;;11.53;10.43;;;19.70;98.30;;;;;;4231176;28;20495;-82
2021/08/11 22:07:58;;;;;;;10.87;9.77;;;19.70;98.30;;;;;;4229741;28;20960;-82
2021/08/11 22:10:04;;;;;;;12.10;10.90;;;19.70;98.30;;;;;;4232217;28;20461;-82
2021/08/11 22:12:11;;;;;;;12.07;10.50;;;19.60;98.30;;;;;;4232363;28;20460;-82
2021/08/11 22:14:37;;;;;;;10.63;9.10;;;19.60;98.30;;;;;;4227984;28;20468;-81
2021/08/11 22:16:42;;;;;;;11.50;10.40;;;19.50;98.30;;;;;;4232707;28;20555;-82
2021/08/11 22:18:46;;;;;;;11.53;10.40;;;19.40;98.30;;;;;;4232419;28;20488;-81
2021/08/11 22:20:52;;;;;;;12.10;10.60;;;19.40;98.30;;;;;;4230730;28;20473;-81
2021/08/11 22:22:59;;;;;;;11.70;10.53;;;19.40;98.30;;;;;;4228856;28;20461;-81
2021/08/11 22:25:07;;;;;;;11.97;10.73;;;19.40;98.30;;;;;;4228282;28;20464;-82
2021/08/11 22:29:47;;;;;;;11.87;10.30;;;19.40;98.30;;;;;;4229448;28;20453;-82
2021/08/11 22:31:58;;;;;;;15.00;11.20;;;19.40;98.30;;;;;;4227902;28;20467;-81
2021/08/11 22:34:03;;;;;;;11.40;10.20;;;19.50;98.30;;;;;;4228268;28;20490;-82
2021/08/11 22:36:11;;;;;;;15.10;11.57;;;19.60;98.30;;;;;;4229380;28;20469;-82
2021/08/11 22:38:16;;;;;;;13.03;10.77;;;19.60;98.30;;;;;;4227446;28;20504;-82
2021/08/11 22:40:26;;;;;;;12.90;11.60;;;19.60;98.30;;;;;;4229187;28;20479;-82
2021/08/11 22:42:33;;;;;;;13.87;10.03;;;19.60;98.30;;;;;;4228079;28;20461;-81
2021/08/11 22:44:41;;;;;;;12.30;11.07;;;19.60;98.30;;;;;;4229811;28;20552;-82
2021/08/11 22:46:46;;;;;;;13.53;10.53;;;19.60;98.30;;;;;;4230874;28;20472;-82
2021/08/11 22:48:58;;;;;;;10.90;9.80;;;19.50;98.30;;;;;;4231177;28;20524;-82
2021/08/11 22:51:03;;;;;;;14.87;11.07;;;19.40;98.30;;;;;;4226312;28;20827;-80
2021/08/11 22:53:09;;;;;;;12.20;10.60;;;19.10;98.30;;;;;;4225385;28;20887;-79
2021/08/11 22:55:18;;;;;;;12.60;11.30;;;18.90;98.30;;;;;;4224252;28;20461;-82
2021/08/11 22:57:24;;;;;;;12.93;11.40;;;18.80;98.30;;;;;;4227038;28;20486;-82
2021/08/11 22:59:32;;;;;;;12.97;11.63;;;18.90;98.30;;;;;;4229804;28;21285;-82
2021/08/11 23:01:44;;;;;;;13.20;11.67;;;18.90;98.30;;;;;;4224448;28;20467;-81
2021/08/11 23:03:58;;;;;;;12.40;11.10;;;18.80;98.30;;;;;;4227079;28;21226;-81
2021/08/11 23:06:15;;;;;;;12.70;11.40;;;18.90;98.30;;;;;;4231260;28;20488;-82
2021/08/11 23:08:24;;;;;;;13.37;11.90;;;18.80;98.30;;;;;;4228014;28;20499;-82
2021/08/11 23:10:29;;;;;;;12.80;11.50;;;18.70;98.30;;;;;;4227877;28;20463;-81
2021/08/11 23:12:44;;;;;;;12.40;11.20;;;18.60;98.30;;;;;;4230251;28;20982;-82
2021/08/11 23:14:49;;;;;;;13.30;11.17;;;18.40;98.30;;;;;;4230186;28;20517;-82
2021/08/11 23:16:56;;;;;;;13.20;11.00;;;18.40;98.30;;;;;;4229561;28;20564;-81
2021/08/11 23:19:03;;;;;;;15.23;11.97;;;18.50;98.30;;;;;;4231019;28;20964;-82
2021/08/11 23:21:12;;;;;;;14.27;10.93;;;18.50;98.30;;;;;;4231330;28;20486;-81
2021/08/11 23:23:19;;;;;;;15.47;12.73;;;18.60;98.30;;;;;;4229546;28;20817;-81
2021/08/11 23:25:26;;;;;;;16.77;13.10;;;18.60;98.30;;;;;;4228825;28;20464;-81
2021/08/11 23:27:32;;;;;;;15.63;13.33;;;18.60;98.30;;;;;;4229384;28;21057;-81
2021/08/11 23:29:36;;;;;;;12.40;11.20;;;18.50;98.30;;;;;;4230588;28;20461;-80
2021/08/11 23:31:38;;;;;;;15.63;10.90;;;18.50;98.30;;;;;;4227199;28;20454;-82
2021/08/11 23:33:43;;;;;;;14.93;13.23;;;18.50;98.30;;;;;;4226896;28;20493;-82
2021/08/11 23:35:46;;;;;;;14.23;12.87;;;18.50;98.30;;;;;;4228736;28;21011;-82
2021/08/11 23:37:49;;;;;;;15.10;12.63;;;18.50;98.30;;;;;;4226783;28;20484;-82
2021/08/11 23:39:52;;;;;;;14.07;12.60;;;18.60;98.30;;;;;;4225936;28;20857;-81
2021/08/11 23:41:54;;;;;;;14.97;13.30;;;18.60;98.30;;;;;;4230386;28;20465;-80
2021/08/11 23:43:57;;;;;;;17.03;14.57;;;18.50;98.30;;;;;;4228488;28;20483;-81
2021/08/11 23:46:03;;;;;;;18.17;13.37;;;18.50;98.30;;;;;;4228665;28;20816;-82
2021/08/11 23:48:07;;;;;;;14.50;12.23;;;18.50;98.30;;;;;;4228841;28;20847;-82
2021/08/11 23:50:12;;;;;;;12.47;11.17;;;18.30;98.30;;;;;;4226615;28;20553;-82
2021/08/11 23:52:15;;;;;;;13.13;11.60;;;18.20;98.30;;;;;;4227733;28;20462;-82
2021/08/11 23:54:18;;;;;;;13.87;10.77;;;18.10;98.30;;;;;;4227940;28;20541;-82
2021/08/11 23:56:23;;;;;;;12.70;10.90;;;18.10;98.30;;;;;;4230187;28;20813;-82
2021/08/11 23:58:26;;;;;;;17.40;12.43;;;18.10;98.30;;;;;;4227040;28;20489;-81
